Impacts METAR Board
IDs:

KMSP - Minneapolis-St Paul, MN, US

Updated at: 2100 UTC 06 Dec 2019
Potential Impact None Slight Moderate High
Time 06/09Z 06/10Z 06/11Z 06/12Z 06/13Z 06/14Z 06/15Z 06/16Z 06/17Z 06/18Z 06/19Z 06/20Z 06/21Z
Temp26 24 22 20 18 17 18 19 22 24 26 26 26
Dewpt19 17 15 13 12 12 11 11 12 13 13 13 12
Altim30.26 30.28 30.29 30.32 30.33 30.35 30.36 30.39 30.39 30.38 30.36 30.35 30.35
VIS10 10 10 10 10 10 10 10 10 10 10 10 10
CIG-- -- -- -- -- -- -- -- -- -- -- -- --
CoverCLRFEWFEWFEWFEWCLRFEWFEWFEWFEWFEWFEWSCT
FltCatVFRVFRVFRVFRVFRVFRVFRVFRVFRVFRVFRVFRVFR
WX--------------------------
WDir3203303103103203103203103500280260220
WSpd13 10 7 7 7 9 7 7 3 0 3 5 6
WGst-- -- -- -- -- -- -- -- -- -- -- -- --
Raw hourly METARs
KMSP 060853Z 32013KT 10SM CLR M03/M07 A3026 RMK AO2 SLP258 T10331072 53029
KMSP 060953Z 33010KT 10SM FEW030 M04/M08 A3028 RMK AO2 SLP265 T10441083
KMSP 061053Z 31007KT 10SM FEW030 M06/M09 A3029 RMK AO2 SLP271 T10561094
KMSP 061153Z COR 31007KT 10SM FEW030 M07/M11 A3032 RMK AO2 SLP280 4/005 T10671106 10000 21067 53019
KMSP 061253Z 32007KT 10SM FEW030 M08/M11 A3033 RMK AO2 SLP282 T10781111
KMSP 061353Z 31009KT 10SM CLR M08/M11 A3035 RMK AO2 SLP292 T10831111
KMSP 061453Z 32007KT 10SM FEW250 M08/M12 A3036 RMK AO2 SLP294 T10781117 52014
KMSP 061553Z 31007KT 10SM FEW250 M07/M12 A3039 RMK AO2 SLP302 T10721117
KMSP 061653Z 35003KT 10SM FEW250 M06/M11 A3039 RMK AO2 SLP304 T10561111
KMSP 061753Z 00000KT 10SM FEW250 M04/M11 A3038 RMK AO2 SLP300 4/005 T10441106 11044 21083 50007
KMSP 061853Z 28003KT 10SM FEW250 M03/M11 A3036 RMK AO2 SLP293 T10331106
KMSP 061953Z 26005KT 10SM FEW250 M03/M11 A3035 RMK AO2 SLP289 T10331106
KMSP 062053Z 22006KT 10SM SCT250 M03/M11 A3035 RMK AO2 SLP289 T10331111 56011



Page loaded:  21:24 UTC  |   01:24 PM Pacific  |   02:24 PM Mountain  |   03:24 PM Central  |   04:24 PM Eastern

 

ADVISORIES

FORECASTS

FORECASTS

OBSERVATIONS

USER TOOLS

ABOUT US